createdAt,value
2018-08-27T06:45:01.526Z,15
2018-08-27T06:46:03.252Z,15
2018-08-27T06:47:04.950Z,15
2018-08-27T06:48:06.870Z,15
2018-08-27T06:49:08.876Z,15
2018-08-27T06:50:10.671Z,15
2018-08-27T06:51:12.815Z,15
2018-08-27T06:52:14.573Z,15
2018-08-27T06:53:16.980Z,25
2018-08-27T06:54:18.749Z,30
2018-08-27T06:55:20.706Z,30
2018-08-27T06:56:22.438Z,30
2018-08-27T06:57:24.562Z,30
2018-08-27T06:58:26.162Z,30
2018-08-27T06:59:27.988Z,30
2018-08-27T07:00:29.868Z,30
2018-08-27T07:01:31.705Z,20
2018-08-27T07:02:33.601Z,20
2018-08-27T07:03:35.959Z,20
2018-08-27T07:04:38.188Z,35
2018-08-27T07:05:40.355Z,30
2018-08-27T07:06:43.751Z,35
2018-08-27T07:07:46.027Z,40
2018-08-27T07:08:47.818Z,45
2018-08-27T07:09:50.457Z,40
2018-08-27T07:10:52.591Z,30
2018-08-27T07:11:54.860Z,25
2018-08-27T07:12:57.204Z,25
2018-08-27T07:13:59.316Z,25
2018-08-27T07:15:01.335Z,20
2018-08-27T07:16:03.522Z,30
2018-08-27T07:17:05.607Z,40
2018-08-27T07:18:07.782Z,40
2018-08-27T07:19:09.936Z,45
2018-08-27T07:20:12.008Z,40
2018-08-27T07:21:14.321Z,35
2018-08-27T07:22:16.649Z,45
2018-08-27T07:23:18.652Z,40
2018-08-27T07:24:21.071Z,40
2018-08-27T07:25:23.280Z,30
2018-08-27T07:26:25.378Z,30
2018-08-27T07:27:27.757Z,45
2018-08-27T07:28:29.813Z,60
2018-08-27T07:29:31.852Z,80
2018-08-27T07:30:34.633Z,70
2018-08-27T07:31:36.852Z,80
2018-08-27T07:32:38.957Z,75
2018-08-27T07:33:41.527Z,70
2018-08-27T07:34:43.825Z,65
2018-08-27T07:35:45.933Z,55
2018-08-27T07:36:49.403Z,75
2018-08-27T07:37:51.539Z,65
2018-08-27T07:38:53.862Z,50
2018-08-27T07:39:55.867Z,65
2018-08-27T07:40:58.207Z,55
2018-08-27T07:42:00.263Z,55
2018-08-27T07:43:02.316Z,95
2018-08-27T07:44:04.417Z,90
2018-08-27T07:45:06.983Z,70
2018-08-27T07:46:09.156Z,55
2018-08-27T07:47:11.158Z,55
2018-08-27T07:48:13.178Z,65
2018-08-27T07:49:15.224Z,65
2018-08-27T07:50:16.968Z,60
2018-08-27T07:51:18.757Z,50
2018-08-27T07:52:20.632Z,50
2018-08-27T07:53:22.391Z,55
2018-08-27T07:54:24.037Z,60
2018-08-27T07:55:25.864Z,75
2018-08-27T07:56:27.540Z,130
2018-08-27T07:57:29.199Z,155
2018-08-27T07:58:31.001Z,155
2018-08-27T07:59:32.648Z,160
2018-08-27T08:00:34.296Z,175
2018-08-27T08:01:36.091Z,165
2018-08-27T08:02:37.804Z,145
2018-08-27T08:03:39.727Z,125
2018-08-27T08:04:41.837Z,110
2018-08-27T08:05:43.392Z,90
2018-08-27T08:06:45.234Z,80
2018-08-27T08:07:46.888Z,70
2018-08-27T08:08:48.539Z,50
2018-08-27T08:09:50.376Z,50
2018-08-27T08:10:51.848Z,50
2018-08-27T08:11:53.594Z,55
2018-08-27T08:12:55.290Z,50
2018-08-27T08:13:57.195Z,55
2018-08-27T08:14:58.627Z,55
2018-08-27T08:16:00.336Z,50
2018-08-27T08:17:01.975Z,55
2018-08-27T08:18:03.569Z,50
2018-08-27T08:19:05.193Z,55
2018-08-27T08:20:06.951Z,55
2018-08-27T08:21:08.588Z,55
2018-08-27T08:22:10.146Z,55
2018-08-27T08:23:11.731Z,80
2018-08-27T08:24:13.206Z,75
2018-08-27T08:25:14.698Z,75
2018-08-27T08:26:16.299Z,85
2018-08-27T08:27:17.858Z,95
2018-08-27T08:28:19.657Z,130
2018-08-27T08:29:21.238Z,155
2018-08-27T08:30:22.962Z,110
2018-08-27T08:31:24.465Z,105
2018-08-27T08:32:26.194Z,80
2018-08-27T08:33:27.767Z,70
2018-08-27T08:34:29.553Z,65
2018-08-27T08:35:31.058Z,70
2018-08-27T08:36:32.698Z,70
2018-08-27T08:37:34.375Z,75
2018-08-27T08:38:35.943Z,115
2018-08-27T08:39:37.577Z,130
2018-08-27T08:40:39.180Z,105
2018-08-27T08:41:40.727Z,65
2018-08-27T08:42:42.308Z,65
2018-08-27T08:43:44.091Z,85
2018-08-27T08:44:45.613Z,160
2018-08-27T08:45:47.176Z,150
2018-08-27T08:46:48.850Z,95
2018-08-27T08:47:50.468Z,125
2018-08-27T08:48:51.892Z,155
2018-08-27T08:49:53.457Z,175
2018-08-27T08:50:54.931Z,205
2018-08-27T08:51:56.377Z,155
2018-08-27T08:52:58.012Z,160
2018-08-27T08:53:59.453Z,130
2018-08-27T08:55:01.254Z,105
2018-08-27T08:56:02.627Z,85
2018-08-27T08:57:04.062Z,75
2018-08-27T08:58:05.554Z,70
2018-08-27T08:59:06.986Z,75
2018-08-27T09:00:08.476Z,85
2018-08-27T09:01:10.305Z,90
2018-08-27T09:02:11.768Z,75
2018-08-27T09:03:13.361Z,65
2018-08-27T09:04:14.834Z,70
2018-08-27T09:05:16.508Z,65
2018-08-27T09:06:18.019Z,95
2018-08-27T09:07:19.558Z,55
2018-08-27T09:08:21.170Z,60
2018-08-27T09:09:22.645Z,80
2018-08-27T09:10:24.106Z,80
2018-08-27T09:11:25.566Z,75
2018-08-27T09:12:27.160Z,55
2018-08-27T09:13:28.619Z,55
2018-08-27T09:14:30.474Z,60
2018-08-27T09:15:32.104Z,60
2018-08-27T09:16:33.577Z,75
2018-08-27T09:17:35.052Z,60
2018-08-27T09:18:36.649Z,55
2018-08-27T09:19:38.148Z,60
2018-08-27T09:20:39.667Z,55
2018-08-27T09:21:41.173Z,55
2018-08-27T09:22:42.576Z,55
2018-08-27T09:23:44.279Z,55
2018-08-27T09:24:45.670Z,55
2018-08-27T09:25:47.315Z,75
2018-08-27T09:26:48.767Z,90
2018-08-27T09:27:50.263Z,100
2018-08-27T09:28:51.856Z,145
2018-08-27T09:29:53.360Z,115
2018-08-27T09:30:54.880Z,95
2018-08-27T09:31:56.410Z,70
2018-08-27T09:32:57.872Z,60
2018-08-27T09:33:59.303Z,60
2018-08-27T09:35:00.991Z,55
2018-08-27T09:36:02.500Z,55
2018-08-27T09:37:04.079Z,60
2018-08-27T09:38:05.844Z,65
2018-08-27T09:39:07.318Z,75
2018-08-27T09:40:08.826Z,95
2018-08-27T09:41:10.428Z,100
2018-08-27T09:42:11.940Z,120
2018-08-27T09:43:13.541Z,105
2018-08-27T09:44:15.155Z,90
2018-08-27T09:45:16.698Z,75
2018-08-27T09:46:18.209Z,100
2018-08-27T09:47:19.914Z,125
2018-08-27T09:48:21.413Z,160
2018-08-27T09:49:22.942Z,155
2018-08-27T09:50:25.689Z,170
2018-08-27T09:51:27.158Z,180
2018-08-27T09:52:28.630Z,190
2018-08-27T09:53:30.364Z,245
2018-08-27T09:54:31.979Z,200
2018-08-27T09:55:33.457Z,205
2018-08-27T09:56:35.164Z,245
2018-08-27T09:57:36.710Z,200
2018-08-27T09:58:38.317Z,180
2018-08-27T09:59:39.931Z,195
2018-08-27T10:00:41.450Z,200
2018-08-27T10:01:43.019Z,190
2018-08-27T10:02:44.653Z,205
2018-08-27T10:03:46.135Z,190
2018-08-27T10:04:47.830Z,160
2018-08-27T10:05:49.302Z,215
2018-08-27T10:06:50.971Z,205
2018-08-27T10:07:52.460Z,135
2018-08-27T10:08:54.054Z,125
2018-08-27T10:09:55.469Z,145
2018-08-27T10:10:57.153Z,160
2018-08-27T10:11:58.725Z,175
2018-08-27T10:13:00.201Z,140
2018-08-27T10:14:01.895Z,220
2018-08-27T10:15:03.472Z,240
2018-08-27T10:16:04.938Z,155
2018-08-27T10:17:06.575Z,130
2018-08-27T10:18:08.420Z,135
2018-08-27T10:19:09.896Z,180
2018-08-27T10:20:11.505Z,210
2018-08-27T10:21:13.033Z,210
2018-08-27T10:22:14.563Z,205
2018-08-27T10:23:16.218Z,165
2018-08-27T10:24:17.718Z,195
2018-08-27T10:25:19.185Z,175
2018-08-27T10:26:22.416Z,205
2018-08-27T10:27:23.909Z,305
2018-08-27T10:28:25.432Z,305
2018-08-27T10:29:26.924Z,200
2018-08-27T10:30:28.551Z,225
2018-08-27T10:31:30.030Z,215
2018-08-27T10:32:31.491Z,255
2018-08-27T10:33:33.093Z,215
2018-08-27T10:34:34.534Z,225
2018-08-27T10:35:35.960Z,210
2018-08-27T10:36:37.595Z,265
2018-08-27T10:37:39.055Z,165
2018-08-27T10:38:40.525Z,140
2018-08-27T10:39:42.108Z,160
2018-08-27T10:40:43.582Z,180
2018-08-27T10:41:45.040Z,195
2018-08-27T10:42:46.660Z,220
2018-08-27T10:43:48.116Z,205
2018-08-27T10:44:49.682Z,190
2018-08-27T10:45:51.582Z,180
2018-08-27T10:46:53.112Z,220
2018-08-27T10:47:54.584Z,290
2018-08-27T10:48:56.120Z,245
2018-08-27T10:49:57.686Z,195
2018-08-27T10:50:59.016Z,145
2018-08-27T10:52:00.672Z,95
2018-08-27T10:53:02.208Z,255
2018-08-27T10:54:04.122Z,235
2018-08-27T10:55:05.898Z,250
2018-08-27T10:56:07.365Z,310
2018-08-27T10:57:08.852Z,300
2018-08-27T10:58:10.490Z,295
2018-08-27T10:59:11.972Z,295
2018-08-27T11:00:13.632Z,265
2018-08-27T11:01:15.107Z,240
2018-08-27T11:02:16.597Z,210
2018-08-27T11:03:18.118Z,170
2018-08-27T11:04:19.575Z,220
2018-08-27T11:05:21.077Z,190
2018-08-27T11:06:22.664Z,160
2018-08-27T11:07:24.161Z,150
2018-08-27T11:08:25.619Z,155
2018-08-27T11:09:27.363Z,130
2018-08-27T11:10:28.856Z,90
2018-08-27T11:11:30.476Z,110
2018-08-27T11:12:32.032Z,155
2018-08-27T11:13:33.566Z,165
2018-08-27T11:14:35.053Z,205
2018-08-27T11:15:36.804Z,260
2018-08-27T11:16:38.278Z,335
2018-08-27T11:17:39.797Z,295
2018-08-27T11:18:41.375Z,270
2018-08-27T11:19:43.001Z,290
2018-08-27T11:20:44.245Z,300
2018-08-27T11:21:45.737Z,300
2018-08-27T11:22:47.200Z,295
2018-08-27T11:23:48.670Z,255
2018-08-27T11:24:50.292Z,270
2018-08-27T11:25:51.764Z,285
2018-08-27T11:26:53.276Z,240
2018-08-27T11:27:54.866Z,245
2018-08-27T11:28:56.350Z,275
2018-08-27T11:29:58.081Z,255
2018-08-27T11:30:59.529Z,275
2018-08-27T11:32:01.041Z,250
2018-08-27T11:33:02.650Z,250
2018-08-27T11:34:04.039Z,200
2018-08-27T11:35:05.729Z,165
2018-08-27T11:36:07.242Z,205
2018-08-27T11:37:09.013Z,145
2018-08-27T11:38:10.543Z,155
2018-08-27T11:39:12.401Z,95
2018-08-27T11:40:14.050Z,85
2018-08-27T11:41:15.482Z,155
2018-08-27T11:42:16.921Z,240
2018-08-27T11:43:18.638Z,225
2018-08-27T11:44:20.121Z,140
2018-08-27T11:45:21.606Z,95
2018-08-27T11:46:23.106Z,100
2018-08-27T11:47:24.715Z,150
2018-08-27T11:48:26.198Z,180
2018-08-27T11:49:27.893Z,190
2018-08-27T11:50:29.398Z,270
2018-08-27T11:51:30.934Z,265
2018-08-27T11:52:32.435Z,255
2018-08-27T11:53:34.182Z,225
2018-08-27T11:54:35.637Z,275
2018-08-27T11:55:37.383Z,260
2018-08-27T11:56:38.879Z,220
2018-08-27T11:57:40.541Z,240
2018-08-27T11:58:42.034Z,240
2018-08-27T11:59:43.745Z,205
2018-08-27T12:00:45.241Z,245
2018-08-27T12:01:46.815Z,230
2018-08-27T12:02:48.321Z,165
2018-08-27T12:03:49.827Z,195
2018-08-27T12:04:51.732Z,215
2018-08-27T12:05:53.238Z,225
2018-08-27T12:06:54.749Z,250
2018-08-27T12:07:56.446Z,220
2018-08-27T12:08:58.070Z,190
2018-08-27T12:09:59.662Z,240
2018-08-27T12:11:01.107Z,205
2018-08-27T12:12:02.657Z,185
2018-08-27T12:13:04.134Z,180
2018-08-27T12:14:05.655Z,230
2018-08-27T12:15:07.401Z,230
2018-08-27T12:16:08.925Z,240
2018-08-27T12:17:10.436Z,205
2018-08-27T12:18:12.186Z,160
2018-08-27T12:19:13.675Z,120
2018-08-27T12:20:15.384Z,170
2018-08-27T12:21:16.844Z,235
2018-08-27T12:22:18.578Z,220
2018-08-27T12:23:20.151Z,215
2018-08-27T12:24:21.826Z,215
2018-08-27T12:25:23.319Z,210
2018-08-27T12:26:24.863Z,210
2018-08-27T12:27:26.331Z,210
2018-08-27T12:28:27.945Z,215
2018-08-27T12:29:29.409Z,195
2018-08-27T12:30:31.401Z,215
2018-08-27T12:31:32.976Z,195
2018-08-27T12:32:34.478Z,215
2018-08-27T12:33:35.936Z,210
2018-08-27T12:34:37.435Z,205
2018-08-27T12:35:39.021Z,210
2018-08-27T12:36:40.564Z,200
2018-08-27T12:37:42.121Z,190
2018-08-27T12:38:43.739Z,190
2018-08-27T12:39:45.260Z,185
2018-08-27T12:40:46.941Z,180
2018-08-27T12:41:48.323Z,180
2018-08-27T12:42:49.912Z,175
2018-08-27T12:43:51.382Z,170
2018-08-27T12:44:52.912Z,170
2018-08-27T12:45:54.497Z,170
2018-08-27T12:46:55.977Z,170
2018-08-27T12:47:57.514Z,165
2018-08-27T12:48:59.183Z,160
2018-08-27T12:50:00.702Z,160
2018-08-27T12:51:02.442Z,160
2018-08-27T12:52:03.874Z,155
2018-08-27T12:53:05.548Z,155
2018-08-27T12:54:06.991Z,160
2018-08-27T12:55:08.686Z,155
2018-08-27T12:56:10.235Z,155
2018-08-27T12:57:11.734Z,155
2018-08-27T12:58:13.227Z,150
2018-08-27T12:59:15.126Z,150
2018-08-27T13:00:16.658Z,150
2018-08-27T13:01:18.151Z,150
2018-08-27T13:02:19.659Z,145
2018-08-27T13:03:21.153Z,145
2018-08-27T13:04:22.586Z,145
2018-08-27T13:05:24.034Z,145
2018-08-27T13:06:25.728Z,145
2018-08-27T13:07:27.200Z,140
2018-08-27T13:08:28.788Z,140
2018-08-27T13:09:30.444Z,135
2018-08-27T13:10:31.934Z,135
2018-08-27T13:11:33.438Z,135
2018-08-27T13:12:34.983Z,135
2018-08-27T13:13:36.366Z,130
2018-08-27T13:14:37.803Z,130
2018-08-27T13:15:39.263Z,130
2018-08-27T13:16:40.744Z,130
2018-08-27T13:17:43.160Z,130
2018-08-27T13:18:44.811Z,130
2018-08-27T13:19:46.286Z,125
2018-08-27T13:20:47.951Z,125
2018-08-27T13:21:49.419Z,120
2018-08-27T13:22:50.972Z,125
2018-08-27T13:23:52.450Z,135
2018-08-27T13:24:54.108Z,145
2018-08-27T13:25:55.577Z,130
2018-08-27T13:26:57.210Z,125
2018-08-27T13:27:58.679Z,125
2018-08-27T13:29:00.302Z,135
2018-08-27T13:30:01.844Z,150
2018-08-27T13:31:03.242Z,145
2018-08-27T13:32:04.852Z,140
2018-08-27T13:33:06.340Z,140
2018-08-27T13:34:07.793Z,145
2018-08-27T13:35:09.282Z,130
2018-08-27T13:36:10.742Z,105
2018-08-27T13:37:12.192Z,95
2018-08-27T13:38:13.804Z,110
2018-08-27T13:39:15.265Z,120
2018-08-27T13:40:16.840Z,120
2018-08-27T13:41:18.369Z,105
2018-08-27T13:42:19.808Z,115
2018-08-27T13:43:21.260Z,125
2018-08-27T13:44:22.884Z,100
2018-08-27T13:45:24.375Z,70
2018-08-27T13:46:25.966Z,60
2018-08-27T13:47:27.501Z,55
2018-08-27T13:48:29.187Z,45
2018-08-27T13:49:30.752Z,40
2018-08-27T13:50:32.454Z,40
2018-08-27T13:51:33.949Z,45
2018-08-27T13:52:35.563Z,65
2018-08-27T13:53:37.031Z,75
2018-08-27T13:54:38.579Z,70
2018-08-27T13:55:40.163Z,70
2018-08-27T13:56:41.660Z,70
2018-08-27T13:57:43.175Z,80
2018-08-27T13:58:44.960Z,90
2018-08-27T13:59:46.537Z,110
2018-08-27T14:00:48.054Z,145
2018-08-27T14:01:49.831Z,155
2018-08-27T14:02:51.322Z,165
2018-08-27T14:03:53.111Z,150
2018-08-27T14:04:54.620Z,125
2018-08-27T14:05:56.215Z,115
2018-08-27T14:06:58.323Z,115
2018-08-27T14:07:59.764Z,125
2018-08-27T14:09:01.268Z,130
2018-08-27T14:10:02.894Z,145
2018-08-27T14:11:04.362Z,150
2018-08-27T14:12:05.993Z,145
2018-08-27T14:13:07.497Z,135
2018-08-27T14:14:09.257Z,135
2018-08-27T14:15:10.775Z,135
2018-08-27T14:16:12.113Z,140
2018-08-27T14:17:13.767Z,135
2018-08-27T14:18:15.187Z,135
2018-08-27T14:19:16.691Z,130
2018-08-27T14:20:18.288Z,120
2018-08-27T14:21:19.692Z,110
2018-08-27T14:22:21.122Z,120
2018-08-27T14:23:22.819Z,125
2018-08-27T14:24:24.242Z,125
2018-08-27T14:25:25.738Z,120
2018-08-27T14:26:27.377Z,110
2018-08-27T14:27:28.794Z,105
2018-08-27T14:28:30.458Z,100
2018-08-27T14:29:31.905Z,110
2018-08-27T14:30:33.309Z,110
2018-08-27T14:31:34.977Z,125
2018-08-27T14:32:36.404Z,140
2018-08-27T14:33:37.824Z,145
2018-08-27T14:34:39.556Z,145
2018-08-27T14:35:41.005Z,140
2018-08-27T14:36:42.435Z,125
2018-08-27T14:37:44.009Z,115
2018-08-27T14:38:45.492Z,115
2018-08-27T14:39:46.820Z,115
2018-08-27T14:40:48.524Z,120
2018-08-27T14:41:50.012Z,125
2018-08-27T14:42:51.624Z,125
2018-08-27T14:43:53.067Z,120
2018-08-27T14:44:54.592Z,125
2018-08-27T14:45:56.180Z,120
2018-08-27T14:46:57.600Z,120
2018-08-27T14:47:59.046Z,125
2018-08-27T14:49:00.674Z,120
2018-08-27T14:50:02.144Z,120
2018-08-27T14:51:03.566Z,120
2018-08-27T14:52:05.191Z,120
2018-08-27T14:53:06.611Z,115
2018-08-27T14:54:08.316Z,95
2018-08-27T14:55:09.755Z,75
2018-08-27T14:56:11.512Z,90
2018-08-27T14:57:12.835Z,90
2018-08-27T14:58:14.399Z,90
2018-08-27T14:59:15.856Z,90
2018-08-27T15:00:17.952Z,90
2018-08-27T15:01:19.433Z,90
2018-08-27T15:02:21.080Z,90
2018-08-27T15:03:22.635Z,100
2018-08-27T15:04:24.140Z,100
2018-08-27T15:05:25.640Z,105
2018-08-27T15:06:27.118Z,105
2018-08-27T15:07:28.587Z,105
2018-08-27T15:08:30.285Z,105
2018-08-27T15:09:31.748Z,100
2018-08-27T15:10:33.383Z,90
2018-08-27T15:11:34.878Z,85
2018-08-27T15:12:36.449Z,95
2018-08-27T15:13:37.862Z,100
2018-08-27T15:14:39.533Z,100
2018-08-27T15:15:41.017Z,95
2018-08-27T15:16:42.563Z,80
2018-08-27T15:17:44.157Z,70
2018-08-27T15:18:45.609Z,65
2018-08-27T15:19:47.140Z,70
2018-08-27T15:20:48.905Z,65
2018-08-27T15:21:50.392Z,60
2018-08-27T15:22:51.853Z,75
2018-08-27T15:23:53.545Z,90
2018-08-27T15:24:54.974Z,90
2018-08-27T15:25:56.385Z,85
2018-08-27T15:26:58.052Z,80
2018-08-27T15:27:59.478Z,80
2018-08-27T15:29:01.174Z,85
2018-08-27T15:30:02.579Z,85
2018-08-27T15:31:04.221Z,85
2018-08-27T15:32:05.667Z,85
2018-08-27T15:33:07.310Z,85
2018-08-27T15:34:08.719Z,85
2018-08-27T15:35:10.395Z,90
2018-08-27T15:36:12.203Z,95
2018-08-27T15:37:13.620Z,80
2018-08-27T15:38:15.360Z,70
2018-08-27T15:39:16.742Z,65
2018-08-27T15:40:18.161Z,70
2018-08-27T15:41:19.851Z,80
2018-08-27T15:42:21.286Z,80
2018-08-27T15:43:22.660Z,75
2018-08-27T15:44:24.234Z,80
2018-08-27T15:45:25.576Z,80
2018-08-27T15:46:26.990Z,85
2018-08-27T15:47:28.694Z,80
2018-08-27T15:48:30.105Z,80
2018-08-27T15:49:31.884Z,80
2018-08-27T15:50:33.231Z,85
2018-08-27T15:51:34.596Z,80
2018-08-27T15:52:36.310Z,75
2018-08-27T15:53:37.729Z,70
2018-08-27T15:54:39.513Z,75
2018-08-27T15:55:41.255Z,70
2018-08-27T15:56:42.680Z,70
2018-08-27T15:57:44.081Z,65
2018-08-27T15:58:45.768Z,50
2018-08-27T15:59:47.267Z,55
2018-08-27T16:00:48.671Z,55
2018-08-27T16:01:50.295Z,40
2018-08-27T16:02:51.697Z,40
2018-08-27T16:03:53.109Z,35
2018-08-27T16:04:54.821Z,35
2018-08-27T16:05:56.301Z,30
2018-08-27T16:06:57.630Z,25
2018-08-27T16:07:59.144Z,25
2018-08-27T16:09:00.552Z,25
2018-08-27T16:10:01.948Z,20
2018-08-27T16:11:03.463Z,15
2018-08-27T16:12:04.923Z,15
2018-08-27T16:13:06.552Z,20
2018-08-27T16:14:07.959Z,20
2018-08-27T16:15:09.636Z,20
2018-08-27T16:16:11.039Z,20
2018-08-27T16:17:12.440Z,25
2018-08-27T16:18:13.954Z,35
2018-08-27T16:19:15.374Z,30
2018-08-27T16:20:17.670Z,25
2018-08-27T16:21:19.306Z,30
2018-08-27T16:22:20.695Z,25
2018-08-27T16:23:22.116Z,25
2018-08-27T16:24:23.629Z,30
2018-08-27T16:25:25.042Z,40
2018-08-27T16:26:26.460Z,50
2018-08-27T16:27:28.146Z,50
2018-08-27T16:28:29.952Z,55
2018-08-27T16:29:31.348Z,55
2018-08-27T16:30:32.877Z,55
2018-08-27T16:31:34.284Z,55
2018-08-27T16:32:35.780Z,50
2018-08-27T16:33:37.210Z,50
2018-08-27T16:34:38.623Z,50
2018-08-27T16:35:40.285Z,50
2018-08-27T16:36:41.693Z,50
2018-08-27T16:37:43.097Z,50
2018-08-27T16:38:44.500Z,50
2018-08-27T16:39:45.960Z,45
2018-08-27T16:40:47.487Z,40
2018-08-27T16:41:48.889Z,40
2018-08-27T16:42:50.300Z,40
2018-08-27T16:43:52.097Z,40
2018-08-27T16:44:53.508Z,35
2018-08-27T16:45:54.916Z,35
2018-08-27T16:46:56.539Z,35
2018-08-27T16:47:57.947Z,35
2018-08-27T16:48:59.630Z,35
2018-08-27T16:50:01.060Z,35
2018-08-27T16:51:02.713Z,35
2018-08-27T16:52:04.116Z,40
2018-08-27T16:53:05.661Z,40
2018-08-27T16:54:07.237Z,40
2018-08-27T16:55:08.650Z,40
2018-08-27T16:56:10.054Z,40
2018-08-27T16:57:11.557Z,40
2018-08-27T16:58:12.960Z,40
2018-08-27T16:59:14.667Z,35
2018-08-27T17:00:16.113Z,35
2018-08-27T17:01:17.735Z,30
2018-08-27T17:02:19.145Z,30
2018-08-27T17:03:20.818Z,25
2018-08-27T17:04:22.228Z,20
2018-08-27T17:05:23.916Z,20
2018-08-27T17:06:25.336Z,25
2018-08-27T17:07:26.985Z,30
2018-08-27T17:08:28.399Z,25
2018-08-27T17:09:30.075Z,20
2018-08-27T17:10:31.488Z,15
2018-08-27T17:11:33.157Z,10
2018-08-27T17:12:34.560Z,5
2018-08-27T17:13:36.243Z,5
2018-08-27T17:14:37.664Z,5
2018-08-27T17:15:39.326Z,5
2018-08-27T17:16:40.739Z,5
2018-08-27T17:17:42.414Z,10
2018-08-27T17:18:43.817Z,10
2018-08-27T17:19:45.513Z,15
2018-08-27T17:20:46.918Z,15
2018-08-27T17:21:48.585Z,15
2018-08-27T17:22:49.993Z,15
2018-08-27T17:23:51.672Z,20
2018-08-27T17:24:53.078Z,15
2018-08-27T17:25:54.759Z,15
2018-08-27T17:26:56.163Z,15
2018-08-27T17:27:57.568Z,10
2018-08-27T17:28:59.078Z,10
2018-08-27T17:30:00.481Z,10
2018-08-27T17:31:01.990Z,10
2018-08-27T17:32:03.740Z,10
2018-08-27T17:33:05.191Z,5
2018-08-27T17:34:06.544Z,5
2018-08-27T17:35:08.132Z,5
2018-08-27T17:36:09.531Z,5
2018-08-27T17:37:10.932Z,5
2018-08-27T17:38:12.450Z,5
2018-08-27T17:39:13.912Z,5
2018-08-27T17:40:15.559Z,5
2018-08-27T17:41:16.950Z,0
2018-08-27T17:42:18.621Z,0
2018-08-27T17:43:20.028Z,0
2018-08-27T17:44:21.708Z,0
2018-08-27T17:45:23.170Z,0
2018-08-27T17:46:24.794Z,0
2018-08-27T17:47:26.198Z,0
2018-08-27T17:48:29.442Z,5
2018-08-27T17:49:30.961Z,5
2018-08-27T17:50:32.365Z,5
2018-08-27T17:51:33.816Z,10
2018-08-27T17:52:35.280Z,10
2018-08-27T17:53:36.788Z,10
2018-08-27T17:54:38.193Z,5
2018-08-27T17:55:39.807Z,5
2018-08-27T17:56:41.226Z,5
2018-08-27T17:57:42.684Z,5
2018-08-27T17:58:44.398Z,5
2018-08-27T17:59:45.740Z,5
2018-08-27T18:00:47.146Z,5
2018-08-27T18:01:48.666Z,0
2018-08-27T18:02:52.145Z,0
2018-08-27T18:03:53.546Z,0
2018-08-27T18:04:55.312Z,0
2018-08-27T18:05:56.639Z,0
2018-08-27T18:06:58.317Z,0
2018-08-27T18:07:59.715Z,0
2018-08-27T18:09:01.410Z,0
2018-08-27T18:10:02.801Z,0
2018-08-27T18:11:04.491Z,0
2018-08-27T18:12:05.946Z,0
2018-08-27T18:13:07.348Z,0
2018-08-27T18:14:09.026Z,0
2018-08-27T18:15:10.439Z,0
2018-08-27T18:16:11.839Z,0
2018-08-27T18:17:13.336Z,0
2018-08-27T18:18:14.735Z,0
2018-08-27T18:19:16.424Z,0
2018-08-27T18:20:17.820Z,0
2018-08-27T18:21:19.508Z,0
2018-08-27T18:22:20.922Z,0
2018-08-27T18:23:22.597Z,0
2018-08-27T18:24:24.092Z,0
2018-08-27T18:25:25.783Z,0
2018-08-27T18:26:27.331Z,0
2018-08-27T18:27:28.967Z,0
2018-08-27T18:28:30.459Z,0
2018-08-27T18:29:32.368Z,0
2018-08-27T18:30:33.733Z,0
2018-08-27T18:31:35.137Z,0
2018-08-27T18:32:36.540Z,0
2018-08-27T18:33:38.220Z,0
2018-08-27T18:34:39.630Z,0
2018-08-27T18:35:41.030Z,0
2018-08-27T18:36:42.571Z,0
2018-08-27T18:37:43.973Z,0
2018-08-27T18:38:45.373Z,0
2018-08-27T18:39:47.074Z,0
2018-08-27T18:40:48.476Z,0
2018-08-27T18:41:50.155Z,0
2018-08-27T18:42:51.556Z,0
2018-08-27T18:43:53.442Z,0
2018-08-27T18:44:54.847Z,0
2018-08-27T18:45:56.535Z,0
2018-08-27T18:46:57.936Z,0
2018-08-27T18:47:59.333Z,0
2018-08-27T18:49:00.851Z,0
2018-08-27T18:50:02.254Z,0
2018-08-27T18:51:03.658Z,0
2018-08-27T18:52:05.175Z,0
2018-08-27T18:53:06.576Z,0
2018-08-27T18:54:07.975Z,0
2018-08-27T18:55:09.534Z,0
2018-08-27T18:56:11.073Z,0
2018-08-27T18:57:12.581Z,0
2018-08-27T18:58:13.980Z,0
2018-08-27T18:59:15.385Z,0
2018-08-27T19:00:16.900Z,0
2018-08-27T19:01:18.301Z,0
2018-08-27T19:02:19.886Z,0
2018-08-27T19:03:21.473Z,0
2018-08-27T19:04:22.880Z,0
2018-08-27T19:05:24.663Z,0
2018-08-27T19:06:26.215Z,0
2018-08-27T19:07:27.566Z,0
2018-08-27T19:08:28.969Z,0
2018-08-27T19:09:30.478Z,0
2018-08-27T19:10:31.889Z,0
2018-08-27T19:11:33.285Z,0
2018-08-27T19:12:34.947Z,0
2018-08-27T19:13:36.277Z,0
2018-08-27T19:14:37.695Z,0
2018-08-27T19:15:39.320Z,0
2018-08-27T19:16:40.674Z,0
2018-08-27T19:17:42.280Z,0
2018-08-27T19:18:43.618Z,0
2018-08-27T19:19:45.301Z,0
2018-08-27T19:20:46.740Z,0
2018-08-27T19:21:48.412Z,0
2018-08-27T19:22:49.819Z,0
2018-08-27T19:23:51.463Z,0
2018-08-27T19:24:52.867Z,0
2018-08-27T19:25:54.549Z,0
2018-08-27T19:26:55.957Z,0
2018-08-27T19:27:57.636Z,0
2018-08-27T19:28:59.065Z,0
2018-08-27T19:30:00.441Z,0
2018-08-27T19:31:01.967Z,0
2018-08-27T19:32:03.374Z,0
2018-08-27T19:33:04.794Z,0
2018-08-27T19:34:06.277Z,0
2018-08-27T19:35:07.679Z,0
2018-08-27T19:36:09.304Z,0
2018-08-27T19:37:11.875Z,0
2018-08-27T19:38:13.218Z,0
2018-08-27T19:39:14.708Z,0
2018-08-27T19:40:16.174Z,0
2018-08-27T19:41:17.576Z,0
2018-08-27T19:42:19.004Z,0
2018-08-27T19:43:20.964Z,0
2018-08-27T19:44:22.369Z,0
2018-08-27T19:45:23.767Z,0
2018-08-27T19:46:25.507Z,0
2018-08-27T19:47:26.813Z,0
2018-08-27T19:48:28.219Z,0
2018-08-27T19:49:29.745Z,0
2018-08-27T19:50:31.144Z,0
2018-08-27T19:51:32.576Z,0
2018-08-27T19:52:34.108Z,0
2018-08-27T19:53:35.505Z,0
2018-08-27T19:54:36.908Z,0
2018-08-27T19:55:38.574Z,0
2018-08-27T19:56:39.984Z,0
2018-08-27T19:57:41.662Z,0
2018-08-27T19:58:43.063Z,0
2018-08-27T19:59:44.738Z,0
2018-08-27T20:00:46.093Z,0
2018-08-27T20:01:47.677Z,0
2018-08-27T20:02:49.083Z,0
2018-08-27T20:03:50.710Z,0
2018-08-27T20:04:52.115Z,0
2018-08-27T20:05:53.798Z,0
2018-08-27T20:06:55.198Z,0
2018-08-27T20:07:56.885Z,0
2018-08-27T20:08:58.289Z,0
2018-08-27T20:09:59.969Z,0
2018-08-27T20:11:01.372Z,0
2018-08-27T20:12:03.054Z,0
2018-08-27T20:13:04.457Z,0
2018-08-27T20:14:06.170Z,0
2018-08-27T20:15:07.575Z,0
2018-08-27T20:16:09.229Z,0
2018-08-27T20:17:10.681Z,0
2018-08-27T20:18:12.323Z,0
2018-08-27T20:19:13.724Z,0
2018-08-27T20:20:15.125Z,0
2018-08-27T20:21:16.552Z,0
2018-08-27T20:22:17.960Z,0
2018-08-27T20:23:19.513Z,0
2018-08-27T20:24:20.913Z,0
2018-08-27T20:25:22.334Z,0
2018-08-27T20:26:23.862Z,0
2018-08-27T20:27:25.560Z,0
2018-08-27T20:28:26.974Z,0
2018-08-27T20:29:28.571Z,0
2018-08-27T20:30:29.968Z,0
2018-08-27T20:31:31.658Z,0
2018-08-27T20:32:33.059Z,0
2018-08-27T20:33:34.837Z,0
2018-08-27T20:34:36.230Z,0
2018-08-27T20:35:37.860Z,0
2018-08-27T20:36:39.297Z,0
2018-08-27T20:37:40.909Z,0
2018-08-27T20:38:42.314Z,0
2018-08-27T20:39:44.061Z,0
2018-08-27T20:40:45.436Z,0
2018-08-27T20:41:47.081Z,0
2018-08-27T20:42:48.486Z,0
2018-08-27T20:43:49.963Z,0
2018-08-27T20:44:51.367Z,0
2018-08-27T20:45:52.882Z,0
2018-08-27T20:46:54.280Z,0
2018-08-27T20:47:55.685Z,0
2018-08-27T20:48:57.425Z,0
2018-08-27T20:49:59.405Z,0
2018-08-27T20:51:00.945Z,0
2018-08-27T20:52:02.170Z,0
2018-08-27T20:53:03.764Z,0
2018-08-27T20:54:05.174Z,0
2018-08-27T20:55:06.599Z,0
2018-08-27T20:56:08.270Z,0
2018-08-27T20:57:09.820Z,0
2018-08-27T20:58:11.362Z,0
2018-08-27T20:59:12.771Z,0
2018-08-27T21:00:14.438Z,0
2018-08-27T21:01:15.854Z,0
2018-08-27T21:02:17.250Z,0
2018-08-27T21:03:18.763Z,0
2018-08-27T21:04:20.250Z,0
2018-08-27T21:05:21.580Z,0
2018-08-27T21:06:23.085Z,0
2018-08-27T21:07:24.504Z,0
2018-08-27T21:08:26.170Z,0
2018-08-27T21:09:27.570Z,0
2018-08-27T21:10:28.972Z,0
2018-08-27T21:11:30.496Z,0
2018-08-27T21:12:31.892Z,0
2018-08-27T21:13:33.293Z,0
2018-08-27T21:14:34.854Z,0
2018-08-27T21:15:36.212Z,0
2018-08-27T21:16:37.994Z,0
2018-08-27T21:17:39.546Z,0
2018-08-27T21:18:40.973Z,0
2018-08-27T21:19:42.404Z,0